ENAT Airport Information

Runway Information
Runway 11 Length 7165 ft width 131 ft
Elevation 8 ft Threshold 674 ft Heading 121
Runway 29 Length 7165 ft Width 131 ft
Elevation 7 ft Threshold 418 ft Heading 301
Airport Frequencies
Type ATIS Name ATIS Frequency 118.175 MHZ
Type TWR Name TWR Frequency 118.1 MHZ
Airport Navaids
Type NDB Name Alta Frequency 358 KHZ
Type VOR-DME Name Alta Frequency 117400 KHZ
Airport Weather Information & NOTAM
ADDS - METARS form results

(2259 UTC 27 September 2020)
Data provider http://aviationweather.gov/metar/data/
 
METAR text: ENAT 272250Z 16012KT 9999 BKN028 06/02 Q1023 RMK WIND 700FT 18022KT
Conditions at: ENAT (ALTA AIRPORT , NO) observed 2250 UTC 27 September 2020
Temperature: 6.0°C (43°F)
Dewpoint: 2.0°C (36°F) [RH = 75%]
Pressure (altimeter): 30.21 inches Hg (1023.0 mb)
Winds: from the SSE (160 degrees) at 14 MPH (12 knots; 6.2 m/s)
Visibility: 6 or more miles (10+ km)
Ceiling: 2800 feet AGL
Clouds: broken clouds at 2800 feet AGL
Weather: no significant weather observed at this time

METAR text: ENAT 272220Z 17009KT 130V190 9999 BKN031 06/02 Q1023 RMK WIND 700FT 17021KT
Conditions at: ENAT (ALTA AIRPORT , NO) observed 2220 UTC 27 September 2020
Temperature: 6.0°C (43°F)
Dewpoint: 2.0°C (36°F) [RH = 75%]
Pressure (altimeter): 30.21 inches Hg (1023.0 mb)
Winds: from the S (170 degrees) at 10 MPH (9 knots; 4.6 m/s)
Visibility: 6 or more miles (10+ km)
Ceiling: 3100 feet AGL
Clouds: broken clouds at 3100 feet AGL
Weather: no significant weather observed at this time

Forecast for: ENAT (ALTA AIRPORT , NO)
Text: TAF ENAT 271700Z 2718/2722 16008KT CAVOK
Forecast period: 1800 to 2200 UTC 27 September 2020
Forecast type: FROM: standard forecast or significant change
Winds: from the SSE (160 degrees) at 9 MPH (8 knots; 4.1 m/s)
Visibility: 6 or more miles (10+ km)
Ceiling: unknown
Clouds: missing
Weather: NSW  (no significant weather)